sensor_id;sensor_type;location;lat;lon;timestamp;P1;durP1;ratioP1;P2;durP2;ratioP2
19030;SDS011;9648;51.130;13.978;2022-08-18T00:01:49;6.88;;;4.85;;
19030;SDS011;9648;51.130;13.978;2022-08-18T00:04:28;6.90;;;4.63;;
19030;SDS011;9648;51.130;13.978;2022-08-18T00:06:54;6.00;;;4.38;;
19030;SDS011;9648;51.130;13.978;2022-08-18T00:09:21;5.53;;;4.60;;
19030;SDS011;9648;51.130;13.978;2022-08-18T00:11:48;5.00;;;4.40;;
19030;SDS011;9648;51.130;13.978;2022-08-18T00:14:15;5.72;;;4.18;;
19030;SDS011;9648;51.130;13.978;2022-08-18T00:16:43;4.43;;;3.80;;
19030;SDS011;9648;51.130;13.978;2022-08-18T00:19:10;4.97;;;4.20;;
19030;SDS011;9648;51.130;13.978;2022-08-18T00:21:38;4.50;;;4.10;;
19030;SDS011;9648;51.130;13.978;2022-08-18T00:24:05;4.60;;;4.10;;
19030;SDS011;9648;51.130;13.978;2022-08-18T00:26:32;5.20;;;4.30;;
19030;SDS011;9648;51.130;13.978;2022-08-18T00:28:58;4.90;;;4.18;;
19030;SDS011;9648;51.130;13.978;2022-08-18T00:31:25;4.45;;;4.03;;
19030;SDS011;9648;51.130;13.978;2022-08-18T00:33:53;5.40;;;4.10;;
19030;SDS011;9648;51.130;13.978;2022-08-18T00:36:20;6.60;;;4.35;;
19030;SDS011;9648;51.130;13.978;2022-08-18T00:38:48;4.97;;;4.10;;
19030;SDS011;9648;51.130;13.978;2022-08-18T00:41:14;4.47;;;4.07;;
19030;SDS011;9648;51.130;13.978;2022-08-18T00:43:44;5.38;;;4.53;;
19030;SDS011;9648;51.130;13.978;2022-08-18T00:46:13;7.22;;;5.93;;
19030;SDS011;9648;51.130;13.978;2022-08-18T00:48:42;6.47;;;5.72;;
19030;SDS011;9648;51.130;13.978;2022-08-18T00:51:10;8.32;;;5.50;;
19030;SDS011;9648;51.130;13.978;2022-08-18T00:53:51;7.40;;;5.10;;
19030;SDS011;9648;51.130;13.978;2022-08-18T00:56:25;4.93;;;4.35;;
19030;SDS011;9648;51.130;13.978;2022-08-18T00:58:55;6.40;;;4.47;;
19030;SDS011;9648;51.130;13.978;2022-08-18T01:01:25;4.93;;;4.30;;
19030;SDS011;9648;51.130;13.978;2022-08-18T01:03:57;5.90;;;4.50;;
19030;SDS011;9648;51.130;13.978;2022-08-18T01:06:29;5.22;;;4.38;;
19030;SDS011;9648;51.130;13.978;2022-08-18T01:09:03;5.72;;;4.55;;
19030;SDS011;9648;51.130;13.978;2022-08-18T01:11:29;6.00;;;4.63;;
19030;SDS011;9648;51.130;13.978;2022-08-18T01:13:57;5.32;;;4.57;;
19030;SDS011;9648;51.130;13.978;2022-08-18T01:16:24;7.65;;;4.35;;
19030;SDS011;9648;51.130;13.978;2022-08-18T01:19:08;4.80;;;4.30;;
19030;SDS011;9648;51.130;13.978;2022-08-18T01:21:54;5.90;;;4.28;;
19030;SDS011;9648;51.130;13.978;2022-08-18T01:24:28;6.22;;;4.68;;
19030;SDS011;9648;51.130;13.978;2022-08-18T01:27:26;4.40;;;4.00;;
19030;SDS011;9648;51.130;13.978;2022-08-18T01:29:55;4.77;;;4.33;;
19030;SDS011;9648;51.130;13.978;2022-08-18T01:32:23;4.38;;;3.97;;
19030;SDS011;9648;51.130;13.978;2022-08-18T01:34:50;5.00;;;4.45;;
19030;SDS011;9648;51.130;13.978;2022-08-18T01:37:18;5.68;;;4.50;;
19030;SDS011;9648;51.130;13.978;2022-08-18T01:39:48;7.78;;;4.80;;
19030;SDS011;9648;51.130;13.978;2022-08-18T01:42:15;5.03;;;4.53;;
19030;SDS011;9648;51.130;13.978;2022-08-18T01:44:42;5.67;;;4.80;;
19030;SDS011;9648;51.130;13.978;2022-08-18T01:47:10;4.65;;;4.25;;
19030;SDS011;9648;51.130;13.978;2022-08-18T01:49:38;5.38;;;4.45;;
19030;SDS011;9648;51.130;13.978;2022-08-18T01:52:07;6.28;;;4.55;;
19030;SDS011;9648;51.130;13.978;2022-08-18T01:54:34;5.15;;;4.65;;
19030;SDS011;9648;51.130;13.978;2022-08-18T01:57:02;4.50;;;4.10;;
19030;SDS011;9648;51.130;13.978;2022-08-18T01:59:29;5.80;;;4.30;;
19030;SDS011;9648;51.130;13.978;2022-08-18T02:01:56;4.35;;;3.95;;
19030;SDS011;9648;51.130;13.978;2022-08-18T02:04:25;4.88;;;4.32;;
19030;SDS011;9648;51.130;13.978;2022-08-18T02:06:57;6.13;;;4.40;;
19030;SDS011;9648;51.130;13.978;2022-08-18T02:09:25;5.45;;;4.40;;
19030;SDS011;9648;51.130;13.978;2022-08-18T02:11:52;5.07;;;4.50;;
19030;SDS011;9648;51.130;13.978;2022-08-18T02:14:20;5.90;;;4.35;;
19030;SDS011;9648;51.130;13.978;2022-08-18T02:16:47;6.22;;;4.22;;
19030;SDS011;9648;51.130;13.978;2022-08-18T02:19:14;5.43;;;4.30;;
19030;SDS011;9648;51.130;13.978;2022-08-18T02:21:40;5.05;;;4.55;;
19030;SDS011;9648;51.130;13.978;2022-08-18T02:24:07;4.70;;;4.30;;
19030;SDS011;9648;51.130;13.978;2022-08-18T02:26:34;5.47;;;4.20;;
19030;SDS011;9648;51.130;13.978;2022-08-18T02:29:01;5.15;;;4.65;;
19030;SDS011;9648;51.130;13.978;2022-08-18T02:31:29;5.15;;;4.20;;
19030;SDS011;9648;51.130;13.978;2022-08-18T02:33:55;4.82;;;4.28;;
19030;SDS011;9648;51.130;13.978;2022-08-18T02:36:23;5.05;;;4.45;;
19030;SDS011;9648;51.130;13.978;2022-08-18T02:38:50;5.18;;;4.35;;
19030;SDS011;9648;51.130;13.978;2022-08-18T02:41:16;5.15;;;4.15;;
19030;SDS011;9648;51.130;13.978;2022-08-18T02:43:44;4.78;;;4.18;;
19030;SDS011;9648;51.130;13.978;2022-08-18T02:46:12;4.63;;;4.22;;
19030;SDS011;9648;51.130;13.978;2022-08-18T02:48:40;5.05;;;4.55;;
19030;SDS011;9648;51.130;13.978;2022-08-18T02:51:08;6.23;;;4.70;;
19030;SDS011;9648;51.130;13.978;2022-08-18T02:53:37;4.93;;;4.43;;
19030;SDS011;9648;51.130;13.978;2022-08-18T02:56:06;4.90;;;4.40;;
19030;SDS011;9648;51.130;13.978;2022-08-18T02:58:42;5.25;;;4.65;;
19030;SDS011;9648;51.130;13.978;2022-08-18T03:01:12;5.20;;;4.55;;
19030;SDS011;9648;51.130;13.978;2022-08-18T03:03:40;4.60;;;4.20;;
19030;SDS011;9648;51.130;13.978;2022-08-18T03:06:10;4.60;;;4.20;;
19030;SDS011;9648;51.130;13.978;2022-08-18T03:08:36;5.30;;;4.35;;
19030;SDS011;9648;51.130;13.978;2022-08-18T03:11:03;4.32;;;3.92;;
19030;SDS011;9648;51.130;13.978;2022-08-18T03:13:30;4.93;;;4.40;;
19030;SDS011;9648;51.130;13.978;2022-08-18T03:15:57;5.32;;;4.82;;
19030;SDS011;9648;51.130;13.978;2022-08-18T03:18:23;4.85;;;4.40;;
19030;SDS011;9648;51.130;13.978;2022-08-18T03:20:51;6.00;;;4.60;;
19030;SDS011;9648;51.130;13.978;2022-08-18T03:23:18;6.20;;;4.30;;
19030;SDS011;9648;51.130;13.978;2022-08-18T03:25:46;5.60;;;4.47;;
19030;SDS011;9648;51.130;13.978;2022-08-18T03:28:14;4.45;;;4.05;;
19030;SDS011;9648;51.130;13.978;2022-08-18T03:30:41;5.40;;;4.40;;
19030;SDS011;9648;51.130;13.978;2022-08-18T03:33:08;4.40;;;4.00;;
19030;SDS011;9648;51.130;13.978;2022-08-18T03:35:35;5.18;;;4.30;;
19030;SDS011;9648;51.130;13.978;2022-08-18T03:38:03;5.75;;;4.90;;
19030;SDS011;9648;51.130;13.978;2022-08-18T03:40:30;5.72;;;4.47;;
19030;SDS011;9648;51.130;13.978;2022-08-18T03:42:57;5.53;;;4.75;;
19030;SDS011;9648;51.130;13.978;2022-08-18T03:45:30;6.30;;;4.60;;
19030;SDS011;9648;51.130;13.978;2022-08-18T03:47:57;4.85;;;4.35;;
19030;SDS011;9648;51.130;13.978;2022-08-18T03:50:24;5.57;;;4.53;;
19030;SDS011;9648;51.130;13.978;2022-08-18T03:52:51;5.23;;;4.20;;
19030;SDS011;9648;51.130;13.978;2022-08-18T03:55:20;4.70;;;4.20;;
19030;SDS011;9648;51.130;13.978;2022-08-18T03:57:47;5.13;;;4.63;;
19030;SDS011;9648;51.130;13.978;2022-08-18T04:00:16;5.28;;;4.38;;
19030;SDS011;9648;51.130;13.978;2022-08-18T04:02:43;5.65;;;4.68;;
19030;SDS011;9648;51.130;13.978;2022-08-18T04:05:10;4.90;;;4.45;;
19030;SDS011;9648;51.130;13.978;2022-08-18T04:07:38;4.80;;;4.35;;
19030;SDS011;9648;51.130;13.978;2022-08-18T04:10:05;5.00;;;4.50;;
19030;SDS011;9648;51.130;13.978;2022-08-18T04:12:33;6.50;;;4.55;;
19030;SDS011;9648;51.130;13.978;2022-08-18T04:15:01;6.20;;;4.70;;
19030;SDS011;9648;51.130;13.978;2022-08-18T04:17:28;5.15;;;4.60;;
19030;SDS011;9648;51.130;13.978;2022-08-18T04:19:55;5.90;;;4.70;;
19030;SDS011;9648;51.130;13.978;2022-08-18T04:22:22;4.90;;;4.40;;
19030;SDS011;9648;51.130;13.978;2022-08-18T04:24:50;6.13;;;4.70;;
19030;SDS011;9648;51.130;13.978;2022-08-18T04:27:17;5.10;;;4.60;;
19030;SDS011;9648;51.130;13.978;2022-08-18T04:29:46;6.05;;;4.60;;
19030;SDS011;9648;51.130;13.978;2022-08-18T04:32:13;5.40;;;4.80;;
19030;SDS011;9648;51.130;13.978;2022-08-18T04:34:40;5.38;;;4.70;;
19030;SDS011;9648;51.130;13.978;2022-08-18T04:37:06;5.00;;;4.50;;
19030;SDS011;9648;51.130;13.978;2022-08-18T04:39:33;4.97;;;4.43;;
19030;SDS011;9648;51.130;13.978;2022-08-18T04:42:02;6.47;;;4.83;;
19030;SDS011;9648;51.130;13.978;2022-08-18T04:44:29;5.13;;;4.63;;
19030;SDS011;9648;51.130;13.978;2022-08-18T04:46:59;6.10;;;5.30;;
19030;SDS011;9648;51.130;13.978;2022-08-18T04:49:26;6.28;;;4.88;;
19030;SDS011;9648;51.130;13.978;2022-08-18T04:51:54;6.50;;;4.73;;
19030;SDS011;9648;51.130;13.978;2022-08-18T04:54:39;5.05;;;4.53;;
19030;SDS011;9648;51.130;13.978;2022-08-18T04:57:06;5.20;;;4.70;;
19030;SDS011;9648;51.130;13.978;2022-08-18T04:59:35;6.53;;;5.10;;
19030;SDS011;9648;51.130;13.978;2022-08-18T05:02:04;5.28;;;4.55;;
19030;SDS011;9648;51.130;13.978;2022-08-18T05:04:32;6.25;;;4.70;;
19030;SDS011;9648;51.130;13.978;2022-08-18T05:07:01;5.55;;;4.80;;
19030;SDS011;9648;51.130;13.978;2022-08-18T05:09:28;4.95;;;4.43;;
19030;SDS011;9648;51.130;13.978;2022-08-18T05:11:55;6.00;;;4.63;;
19030;SDS011;9648;51.130;13.978;2022-08-18T05:14:22;5.30;;;4.80;;
19030;SDS011;9648;51.130;13.978;2022-08-18T05:16:49;5.20;;;4.38;;
19030;SDS011;9648;51.130;13.978;2022-08-18T05:19:20;6.35;;;4.70;;
19030;SDS011;9648;51.130;13.978;2022-08-18T05:21:49;6.30;;;4.65;;
19030;SDS011;9648;51.130;13.978;2022-08-18T05:24:17;6.07;;;4.87;;
19030;SDS011;9648;51.130;13.978;2022-08-18T05:26:45;4.95;;;4.45;;
19030;SDS011;9648;51.130;13.978;2022-08-18T05:29:12;5.80;;;4.60;;
19030;SDS011;9648;51.130;13.978;2022-08-18T05:31:40;5.35;;;4.78;;
19030;SDS011;9648;51.130;13.978;2022-08-18T05:34:07;5.63;;;4.90;;
19030;SDS011;9648;51.130;13.978;2022-08-18T05:36:43;5.20;;;4.70;;
19030;SDS011;9648;51.130;13.978;2022-08-18T05:39:23;5.05;;;4.63;;
19030;SDS011;9648;51.130;13.978;2022-08-18T05:41:54;4.50;;;4.10;;
19030;SDS011;9648;51.130;13.978;2022-08-18T05:44:27;4.80;;;4.38;;
19030;SDS011;9648;51.130;13.978;2022-08-18T05:46:58;4.93;;;4.43;;
19030;SDS011;9648;51.130;13.978;2022-08-18T05:49:28;5.05;;;4.57;;
19030;SDS011;9648;51.130;13.978;2022-08-18T05:51:58;5.00;;;4.50;;
19030;SDS011;9648;51.130;13.978;2022-08-18T05:54:29;5.80;;;5.30;;
19030;SDS011;9648;51.130;13.978;2022-08-18T05:57:19;5.40;;;4.90;;
19030;SDS011;9648;51.130;13.978;2022-08-18T05:59:49;5.35;;;4.85;;
19030;SDS011;9648;51.130;13.978;2022-08-18T06:02:21;5.10;;;4.60;;
19030;SDS011;9648;51.130;13.978;2022-08-18T06:04:56;5.47;;;4.97;;
19030;SDS011;9648;51.130;13.978;2022-08-18T06:07:29;6.43;;;5.33;;
19030;SDS011;9648;51.130;13.978;2022-08-18T06:10:01;5.53;;;4.57;;
19030;SDS011;9648;51.130;13.978;2022-08-18T06:12:32;5.30;;;4.80;;
19030;SDS011;9648;51.130;13.978;2022-08-18T06:15:03;5.00;;;4.50;;
19030;SDS011;9648;51.130;13.978;2022-08-18T06:20:48;5.43;;;4.80;;
19030;SDS011;9648;51.130;13.978;2022-08-18T06:23:34;5.30;;;4.80;;
19030;SDS011;9648;51.130;13.978;2022-08-18T06:26:08;5.82;;;4.80;;
19030;SDS011;9648;51.130;13.978;2022-08-18T06:28:46;7.50;;;5.40;;
19030;SDS011;9648;51.130;13.978;2022-08-18T06:31:19;5.90;;;5.05;;
19030;SDS011;9648;51.130;13.978;2022-08-18T06:33:54;14.00;;;6.18;;
19030;SDS011;9648;51.130;13.978;2022-08-18T06:36:34;8.00;;;5.70;;
19030;SDS011;9648;51.130;13.978;2022-08-18T06:39:08;8.23;;;5.70;;
19030;SDS011;9648;51.130;13.978;2022-08-18T06:41:50;6.22;;;5.63;;
19030;SDS011;9648;51.130;13.978;2022-08-18T06:44:20;6.22;;;5.00;;
19030;SDS011;9648;51.130;13.978;2022-08-18T06:46:52;5.93;;;4.73;;
19030;SDS011;9648;51.130;13.978;2022-08-18T06:49:31;7.45;;;5.50;;
19030;SDS011;9648;51.130;13.978;2022-08-18T06:54:56;6.38;;;5.10;;
19030;SDS011;9648;51.130;13.978;2022-08-18T06:57:26;5.63;;;4.97;;
19030;SDS011;9648;51.130;13.978;2022-08-18T06:59:59;6.43;;;5.20;;
19030;SDS011;9648;51.130;13.978;2022-08-18T07:05:18;8.20;;;5.75;;
19030;SDS011;9648;51.130;13.978;2022-08-18T07:07:59;7.97;;;5.20;;
19030;SDS011;9648;51.130;13.978;2022-08-18T07:10:34;5.30;;;4.80;;
19030;SDS011;9648;51.130;13.978;2022-08-18T07:13:07;5.70;;;5.00;;
19030;SDS011;9648;51.130;13.978;2022-08-18T07:15:40;5.63;;;4.63;;
19030;SDS011;9648;51.130;13.978;2022-08-18T07:18:08;6.82;;;5.05;;
19030;SDS011;9648;51.130;13.978;2022-08-18T07:20:40;5.78;;;5.00;;
19030;SDS011;9648;51.130;13.978;2022-08-18T07:23:08;5.63;;;4.80;;
19030;SDS011;9648;51.130;13.978;2022-08-18T07:25:52;5.63;;;4.53;;
19030;SDS011;9648;51.130;13.978;2022-08-18T07:28:29;5.70;;;4.67;;
19030;SDS011;9648;51.130;13.978;2022-08-18T07:31:08;5.88;;;4.70;;
19030;SDS011;9648;51.130;13.978;2022-08-18T07:33:42;7.47;;;5.10;;
19030;SDS011;9648;51.130;13.978;2022-08-18T07:36:16;6.28;;;4.70;;
19030;SDS011;9648;51.130;13.978;2022-08-18T07:38:47;5.55;;;4.70;;
19030;SDS011;9648;51.130;13.978;2022-08-18T07:41:20;7.53;;;4.63;;
19030;SDS011;9648;51.130;13.978;2022-08-18T07:43:54;5.57;;;4.93;;
19030;SDS011;9648;51.130;13.978;2022-08-18T07:46:27;8.15;;;4.72;;
19030;SDS011;9648;51.130;13.978;2022-08-18T07:49:00;6.13;;;4.80;;
19030;SDS011;9648;51.130;13.978;2022-08-18T07:51:28;5.75;;;4.50;;
19030;SDS011;9648;51.130;13.978;2022-08-18T07:54:09;5.95;;;4.75;;
19030;SDS011;9648;51.130;13.978;2022-08-18T07:56:45;8.13;;;4.78;;
19030;SDS011;9648;51.130;13.978;2022-08-18T07:59:18;6.70;;;4.70;;
19030;SDS011;9648;51.130;13.978;2022-08-18T08:01:52;6.80;;;4.65;;
19030;SDS011;9648;51.130;13.978;2022-08-18T08:04:36;8.20;;;5.20;;
19030;SDS011;9648;51.130;13.978;2022-08-18T08:07:08;6.13;;;4.63;;
19030;SDS011;9648;51.130;13.978;2022-08-18T08:09:39;6.88;;;4.65;;
19030;SDS011;9648;51.130;13.978;2022-08-18T08:12:21;6.85;;;5.10;;
19030;SDS011;9648;51.130;13.978;2022-08-18T08:14:59;7.22;;;5.07;;
19030;SDS011;9648;51.130;13.978;2022-08-18T08:17:33;8.50;;;4.80;;
19030;SDS011;9648;51.130;13.978;2022-08-18T08:20:10;7.40;;;4.85;;
19030;SDS011;9648;51.130;13.978;2022-08-18T08:22:48;5.13;;;4.63;;
19030;SDS011;9648;51.130;13.978;2022-08-18T08:25:24;8.68;;;4.75;;
19030;SDS011;9648;51.130;13.978;2022-08-18T08:27:59;7.22;;;4.60;;
19030;SDS011;9648;51.130;13.978;2022-08-18T08:30:39;7.07;;;4.43;;
19030;SDS011;9648;51.130;13.978;2022-08-18T08:33:16;7.15;;;4.82;;
19030;SDS011;9648;51.130;13.978;2022-08-18T08:35:49;10.85;;;5.10;;
19030;SDS011;9648;51.130;13.978;2022-08-18T08:38:22;9.13;;;5.20;;
19030;SDS011;9648;51.130;13.978;2022-08-18T08:40:53;5.85;;;4.50;;
19030;SDS011;9648;51.130;13.978;2022-08-18T08:43:28;5.80;;;4.63;;
19030;SDS011;9648;51.130;13.978;2022-08-18T08:46:02;6.25;;;4.78;;
19030;SDS011;9648;51.130;13.978;2022-08-18T08:48:35;5.75;;;4.43;;
19030;SDS011;9648;51.130;13.978;2022-08-18T08:51:10;6.10;;;4.47;;
19030;SDS011;9648;51.130;13.978;2022-08-18T08:53:49;5.27;;;4.50;;
19030;SDS011;9648;51.130;13.978;2022-08-18T08:56:22;6.20;;;5.60;;
19030;SDS011;9648;51.130;13.978;2022-08-18T08:58:55;6.93;;;5.05;;
19030;SDS011;9648;51.130;13.978;2022-08-18T09:01:26;7.88;;;4.93;;
19030;SDS011;9648;51.130;13.978;2022-08-18T09:03:57;6.47;;;4.50;;
19030;SDS011;9648;51.130;13.978;2022-08-18T09:06:44;6.13;;;5.00;;
19030;SDS011;9648;51.130;13.978;2022-08-18T09:09:20;7.80;;;4.72;;
19030;SDS011;9648;51.130;13.978;2022-08-18T09:12:18;6.40;;;5.00;;
19030;SDS011;9648;51.130;13.978;2022-08-18T09:15:10;6.65;;;4.93;;
19030;SDS011;9648;51.130;13.978;2022-08-18T09:18:04;8.00;;;4.83;;
19030;SDS011;9648;51.130;13.978;2022-08-18T09:20:48;8.07;;;4.88;;
19030;SDS011;9648;51.130;13.978;2022-08-18T09:23:23;5.70;;;4.67;;
19030;SDS011;9648;51.130;13.978;2022-08-18T09:25:53;7.63;;;4.90;;
19030;SDS011;9648;51.130;13.978;2022-08-18T09:28:41;7.18;;;4.88;;
19030;SDS011;9648;51.130;13.978;2022-08-18T09:31:21;5.70;;;4.57;;
19030;SDS011;9648;51.130;13.978;2022-08-18T09:33:52;5.55;;;4.53;;
19030;SDS011;9648;51.130;13.978;2022-08-18T09:36:32;9.45;;;4.70;;
19030;SDS011;9648;51.130;13.978;2022-08-18T09:39:10;6.32;;;4.65;;
19030;SDS011;9648;51.130;13.978;2022-08-18T09:42:06;5.07;;;4.63;;
19030;SDS011;9648;51.130;13.978;2022-08-18T09:59:50;8.45;;;4.68;;
19030;SDS011;9648;51.130;13.978;2022-08-18T10:06:04;7.03;;;4.10;;
19030;SDS011;9648;51.130;13.978;2022-08-18T10:08:47;5.97;;;4.25;;
19030;SDS011;9648;51.130;13.978;2022-08-18T10:11:33;5.65;;;3.90;;
19030;SDS011;9648;51.130;13.978;2022-08-18T10:14:19;5.53;;;4.07;;
19030;SDS011;9648;51.130;13.978;2022-08-18T10:16:56;7.05;;;4.15;;
19030;SDS011;9648;51.130;13.978;2022-08-18T10:19:32;5.65;;;4.00;;
19030;SDS011;9648;51.130;13.978;2022-08-18T10:22:04;5.55;;;4.03;;
19030;SDS011;9648;51.130;13.978;2022-08-18T10:24:34;5.13;;;3.90;;
19030;SDS011;9648;51.130;13.978;2022-08-18T10:27:06;6.25;;;4.05;;
19030;SDS011;9648;51.130;13.978;2022-08-18T10:29:48;5.05;;;4.20;;
19030;SDS011;9648;51.130;13.978;2022-08-18T10:38:25;7.53;;;4.10;;
19030;SDS011;9648;51.130;13.978;2022-08-18T10:41:03;6.80;;;4.20;;
19030;SDS011;9648;51.130;13.978;2022-08-18T10:43:36;7.00;;;4.60;;
19030;SDS011;9648;51.130;13.978;2022-08-18T10:46:13;7.20;;;4.00;;
19030;SDS011;9648;51.130;13.978;2022-08-18T10:48:43;4.72;;;4.10;;
19030;SDS011;9648;51.130;13.978;2022-08-18T10:51:24;4.57;;;4.18;;
19030;SDS011;9648;51.130;13.978;2022-08-18T10:54:03;6.68;;;4.30;;
19030;SDS011;9648;51.130;13.978;2022-08-18T10:56:39;4.68;;;4.15;;
19030;SDS011;9648;51.130;13.978;2022-08-18T10:59:12;5.07;;;4.27;;
19030;SDS011;9648;51.130;13.978;2022-08-18T11:01:54;5.53;;;4.47;;
19030;SDS011;9648;51.130;13.978;2022-08-18T11:04:34;5.43;;;4.05;;
19030;SDS011;9648;51.130;13.978;2022-08-18T11:07:08;5.78;;;4.50;;
19030;SDS011;9648;51.130;13.978;2022-08-18T11:09:38;5.97;;;4.63;;
19030;SDS011;9648;51.130;13.978;2022-08-18T11:12:06;5.40;;;4.30;;
19030;SDS011;9648;51.130;13.978;2022-08-18T11:14:44;6.32;;;4.32;;
19030;SDS011;9648;51.130;13.978;2022-08-18T11:17:29;9.77;;;4.75;;
19030;SDS011;9648;51.130;13.978;2022-08-18T11:20:05;5.32;;;4.00;;
19030;SDS011;9648;51.130;13.978;2022-08-18T11:22:34;7.28;;;4.60;;
19030;SDS011;9648;51.130;13.978;2022-08-18T11:25:05;4.63;;;4.18;;
19030;SDS011;9648;51.130;13.978;2022-08-18T11:27:44;5.45;;;4.22;;
19030;SDS011;9648;51.130;13.978;2022-08-18T11:30:13;5.32;;;4.18;;
19030;SDS011;9648;51.130;13.978;2022-08-18T11:32:40;4.30;;;3.90;;
19030;SDS011;9648;51.130;13.978;2022-08-18T11:35:10;4.50;;;4.10;;
19030;SDS011;9648;51.130;13.978;2022-08-18T11:37:42;4.47;;;4.05;;
19030;SDS011;9648;51.130;13.978;2022-08-18T11:40:21;4.60;;;4.20;;
19030;SDS011;9648;51.130;13.978;2022-08-18T11:43:00;5.70;;;4.20;;
19030;SDS011;9648;51.130;13.978;2022-08-18T11:45:31;6.00;;;4.67;;
19030;SDS011;9648;51.130;13.978;2022-08-18T11:48:01;7.43;;;4.97;;
19030;SDS011;9648;51.130;13.978;2022-08-18T11:50:46;6.45;;;4.30;;
19030;SDS011;9648;51.130;13.978;2022-08-18T11:53:15;6.23;;;4.40;;
19030;SDS011;9648;51.130;13.978;2022-08-18T11:56:03;6.37;;;4.80;;
19030;SDS011;9648;51.130;13.978;2022-08-18T11:58:40;8.17;;;4.50;;
19030;SDS011;9648;51.130;13.978;2022-08-18T12:01:09;13.98;;;4.85;;
19030;SDS011;9648;51.130;13.978;2022-08-18T12:03:38;8.55;;;4.20;;
19030;SDS011;9648;51.130;13.978;2022-08-18T12:06:12;7.90;;;4.40;;
19030;SDS011;9648;51.130;13.978;2022-08-18T12:08:49;9.30;;;4.40;;
19030;SDS011;9648;51.130;13.978;2022-08-18T12:11:22;8.07;;;3.90;;
19030;SDS011;9648;51.130;13.978;2022-08-18T12:13:56;8.47;;;3.90;;
19030;SDS011;9648;51.130;13.978;2022-08-18T12:16:32;9.80;;;4.10;;
19030;SDS011;9648;51.130;13.978;2022-08-18T12:19:02;11.55;;;4.40;;
19030;SDS011;9648;51.130;13.978;2022-08-18T12:21:30;12.88;;;4.25;;
19030;SDS011;9648;51.130;13.978;2022-08-18T12:23:56;6.57;;;4.10;;
19030;SDS011;9648;51.130;13.978;2022-08-18T12:26:25;8.85;;;4.63;;
19030;SDS011;9648;51.130;13.978;2022-08-18T12:28:52;7.35;;;4.80;;
19030;SDS011;9648;51.130;13.978;2022-08-18T12:31:18;7.40;;;4.22;;
19030;SDS011;9648;51.130;13.978;2022-08-18T12:33:45;5.13;;;4.13;;
19030;SDS011;9648;51.130;13.978;2022-08-18T12:36:12;11.25;;;4.53;;
19030;SDS011;9648;51.130;13.978;2022-08-18T12:38:39;12.13;;;4.68;;
19030;SDS011;9648;51.130;13.978;2022-08-18T12:41:08;10.25;;;4.60;;
19030;SDS011;9648;51.130;13.978;2022-08-18T12:43:37;7.60;;;4.22;;
19030;SDS011;9648;51.130;13.978;2022-08-18T12:46:06;8.13;;;4.70;;
19030;SDS011;9648;51.130;13.978;2022-08-18T12:48:33;13.80;;;4.60;;
19030;SDS011;9648;51.130;13.978;2022-08-18T12:51:02;12.45;;;4.60;;
19030;SDS011;9648;51.130;13.978;2022-08-18T12:53:29;9.27;;;4.60;;
19030;SDS011;9648;51.130;13.978;2022-08-18T12:55:55;10.23;;;5.10;;
19030;SDS011;9648;51.130;13.978;2022-08-18T12:58:23;14.38;;;4.90;;
19030;SDS011;9648;51.130;13.978;2022-08-18T13:00:51;10.02;;;4.63;;
19030;SDS011;9648;51.130;13.978;2022-08-18T13:03:19;11.68;;;4.50;;
19030;SDS011;9648;51.130;13.978;2022-08-18T13:05:46;12.60;;;4.50;;
19030;SDS011;9648;51.130;13.978;2022-08-18T13:08:15;16.65;;;5.18;;
19030;SDS011;9648;51.130;13.978;2022-08-18T13:10:43;11.02;;;4.88;;
19030;SDS011;9648;51.130;13.978;2022-08-18T13:13:10;8.32;;;4.35;;
19030;SDS011;9648;51.130;13.978;2022-08-18T13:15:37;15.70;;;5.25;;
19030;SDS011;9648;51.130;13.978;2022-08-18T13:18:05;6.45;;;4.25;;
19030;SDS011;9648;51.130;13.978;2022-08-18T13:20:32;12.47;;;5.10;;
19030;SDS011;9648;51.130;13.978;2022-08-18T13:23:00;9.50;;;4.70;;
19030;SDS011;9648;51.130;13.978;2022-08-18T13:25:27;7.95;;;4.38;;
19030;SDS011;9648;51.130;13.978;2022-08-18T13:27:54;14.63;;;5.25;;
19030;SDS011;9648;51.130;13.978;2022-08-18T13:30:21;9.15;;;4.85;;
19030;SDS011;9648;51.130;13.978;2022-08-18T13:32:49;11.83;;;5.07;;
19030;SDS011;9648;51.130;13.978;2022-08-18T13:35:17;11.80;;;4.80;;
19030;SDS011;9648;51.130;13.978;2022-08-18T13:37:44;11.57;;;4.50;;
19030;SDS011;9648;51.130;13.978;2022-08-18T13:40:11;9.38;;;4.80;;
19030;SDS011;9648;51.130;13.978;2022-08-18T13:42:42;10.30;;;5.15;;
19030;SDS011;9648;51.130;13.978;2022-08-18T13:45:12;16.93;;;5.10;;
19030;SDS011;9648;51.130;13.978;2022-08-18T13:47:40;9.55;;;4.63;;
19030;SDS011;9648;51.130;13.978;2022-08-18T13:50:08;8.82;;;4.72;;
19030;SDS011;9648;51.130;13.978;2022-08-18T13:52:37;12.90;;;5.05;;
19030;SDS011;9648;51.130;13.978;2022-08-18T13:55:06;9.82;;;4.85;;
19030;SDS011;9648;51.130;13.978;2022-08-18T13:57:35;9.45;;;5.35;;
19030;SDS011;9648;51.130;13.978;2022-08-18T14:00:02;10.02;;;5.05;;
19030;SDS011;9648;51.130;13.978;2022-08-18T14:02:31;13.27;;;5.22;;
19030;SDS011;9648;51.130;13.978;2022-08-18T14:04:58;11.40;;;5.07;;
19030;SDS011;9648;51.130;13.978;2022-08-18T14:07:24;20.10;;;5.22;;
19030;SDS011;9648;51.130;13.978;2022-08-18T14:09:52;14.73;;;5.40;;
19030;SDS011;9648;51.130;13.978;2022-08-18T14:12:20;13.07;;;5.07;;
19030;SDS011;9648;51.130;13.978;2022-08-18T14:14:48;9.50;;;4.88;;
19030;SDS011;9648;51.130;13.978;2022-08-18T14:17:16;14.10;;;5.53;;
19030;SDS011;9648;51.130;13.978;2022-08-18T14:19:42;14.73;;;5.53;;
19030;SDS011;9648;51.130;13.978;2022-08-18T14:22:27;11.82;;;5.32;;
19030;SDS011;9648;51.130;13.978;2022-08-18T14:25:13;7.82;;;5.32;;
19030;SDS011;9648;51.130;13.978;2022-08-18T14:27:58;11.00;;;5.40;;
19030;SDS011;9648;51.130;13.978;2022-08-18T14:30:25;13.57;;;5.63;;
19030;SDS011;9648;51.130;13.978;2022-08-18T14:32:52;13.77;;;5.83;;
19030;SDS011;9648;51.130;13.978;2022-08-18T14:35:18;10.63;;;5.33;;
19030;SDS011;9648;51.130;13.978;2022-08-18T14:37:46;17.27;;;5.82;;
19030;SDS011;9648;51.130;13.978;2022-08-18T14:40:14;13.23;;;5.50;;
19030;SDS011;9648;51.130;13.978;2022-08-18T14:42:44;14.48;;;5.57;;
19030;SDS011;9648;51.130;13.978;2022-08-18T14:45:11;8.57;;;4.95;;
19030;SDS011;9648;51.130;13.978;2022-08-18T14:47:39;13.45;;;5.65;;
19030;SDS011;9648;51.130;13.978;2022-08-18T14:50:07;11.95;;;5.32;;
19030;SDS011;9648;51.130;13.978;2022-08-18T14:52:36;12.05;;;5.63;;
19030;SDS011;9648;51.130;13.978;2022-08-18T14:55:04;10.55;;;5.50;;
19030;SDS011;9648;51.130;13.978;2022-08-18T14:57:33;8.90;;;5.50;;
19030;SDS011;9648;51.130;13.978;2022-08-18T15:00:01;10.03;;;4.93;;
19030;SDS011;9648;51.130;13.978;2022-08-18T15:02:29;11.57;;;5.20;;
19030;SDS011;9648;51.130;13.978;2022-08-18T15:04:56;9.73;;;5.53;;
19030;SDS011;9648;51.130;13.978;2022-08-18T15:07:22;9.50;;;5.35;;
19030;SDS011;9648;51.130;13.978;2022-08-18T15:09:49;12.02;;;5.55;;
19030;SDS011;9648;51.130;13.978;2022-08-18T15:12:16;14.30;;;5.45;;
19030;SDS011;9648;51.130;13.978;2022-08-18T15:14:45;13.80;;;5.55;;
19030;SDS011;9648;51.130;13.978;2022-08-18T15:17:12;14.90;;;5.73;;
19030;SDS011;9648;51.130;13.978;2022-08-18T15:19:39;16.30;;;5.88;;
19030;SDS011;9648;51.130;13.978;2022-08-18T15:22:07;10.65;;;5.45;;
19030;SDS011;9648;51.130;13.978;2022-08-18T15:24:52;14.93;;;5.95;;
19030;SDS011;9648;51.130;13.978;2022-08-18T15:27:36;11.20;;;6.18;;
19030;SDS011;9648;51.130;13.978;2022-08-18T15:30:06;12.93;;;6.25;;
19030;SDS011;9648;51.130;13.978;2022-08-18T15:32:36;13.95;;;5.93;;
19030;SDS011;9648;51.130;13.978;2022-08-18T15:35:05;9.65;;;6.05;;
19030;SDS011;9648;51.130;13.978;2022-08-18T15:37:33;12.82;;;6.28;;
19030;SDS011;9648;51.130;13.978;2022-08-18T15:40:01;12.40;;;5.88;;
19030;SDS011;9648;51.130;13.978;2022-08-18T15:42:35;12.27;;;6.40;;
19030;SDS011;9648;51.130;13.978;2022-08-18T15:45:02;11.37;;;5.80;;